• Join FlightAware (Why Join?)
  • Login
  • US Flag GB Flag 
21:35 EST


 

Airport Tracker/Info


-or-


 

Live Flight TrackerFlight Track Log ✈ UPS1337 ✈ 28-Feb-2014 ✈ KPIE - KRDU

Flight Track Log - Related Links

Times and Time Zones

All times are in EST time to prevent confusion due to time zone crossing. See the UPS1337 flight status page for this flight to view local times or setup timezone preferences in your user account.

Time Position Orientation Groundspeed Altitude Reporting Facility
EST Latitude Longitude Course Direction KTS MPH feet Rate Location/Type
21:43 27.9167 -82.6833 360° North 152 175 800  Level Tampa TRACON
21:44 27.9667 -82.6833 360° North 239 275 2,900 2,820 Climbing Tampa TRACON
21:51 28.6000 -82.6363 359° North 427 491 22,300 2,580 Climbing FlightAware ADS-B (KMCO)
21:54 28.9907 -82.6462 359° North 420 483 28,800 1,740 Climbing FlightAware ADS-B (KMCO)
21:56 29.2276 -82.6524 359° North 414 476 32,000 720 Climbing FlightAware ADS-B (KMCO)
21:59 29.5273 -82.6603 359° North 406 467 32,300 300 Climbing FlightAware ADS-B (KMCO)
22:00 29.6009 -82.6622 359° North 413 475 33,000 420 Climbing FlightAware ADS-B (KMCO)
22:00 29.6958 -82.6648 359° North 417 480 33,000  Level FlightAware ADS-B (KMCO)
22:02 29.8326 -82.6683 359° North 407 468 33,000  Level FlightAware ADS-B (KMCO)
22:02 29.8883 -82.6698 359° North 403 464 33,000  Level FlightAware ADS-B (KMCO)
22:03 30.0173 -82.6732 359° North 402 463 33,000  Level FlightAware ADS-B (KMCO)
22:04 30.0752 -82.6748 359° North 402 463 33,000  Level FlightAware ADS-B (KMCO)
22:04 30.1482 -82.6767 359° North 402 463 33,000  Level FlightAware ADS-B (KMCO)
22:05 30.2426 -82.6792 359° North 401 461 33,000  Level FlightAware ADS-B (KMCO)
22:06 30.2997 -82.6808 359° North 400 460 33,000  Level FlightAware ADS-B (KMCO)
22:06 30.3566 -82.6823 359° North 399 459 33,000 -120 Level FlightAware ADS-B (KMCO)
22:07 30.3936 -82.6831 359° North 399 459 32,900  Descending Jacksonville Center
22:08 30.5086 -82.6708 North 399 459 33,000  Climbing Jacksonville Center
22:09 30.6192 -82.6367 15° North 404 465 32,900  Descending Jacksonville Center
22:10 30.7317 -82.5856 21° North 416 479 33,000  Climbing Jacksonville Center
22:11 30.8486 -82.5297 22° Northeast 431 496 33,000  Level Jacksonville Center
22:12 30.9611 -82.4758 22° Northeast 431 496 33,000 -60 Level Jacksonville Center
22:13 31.0736 -82.4219 22° Northeast 431 496 32,900  Descending Jacksonville Center
22:14 31.1883 -82.3706 21° North 431 496 33,000  Climbing Jacksonville Center
22:15 31.3008 -82.3164 22° Northeast 436 502 33,000  Level Jacksonville Center
22:16 31.4175 -82.2597 23° Northeast 436 502 33,000  Level Jacksonville Center
22:17 31.5342 -82.2003 23° Northeast 442 509 33,000  Level Jacksonville Center
22:18 31.6486 -82.1458 22° Northeast 442 509 33,000  Level Jacksonville Center
22:19 31.7778 -82.0836 22° Northeast 448 516 33,000  Level Jacksonville Center
22:20 31.8817 -82.0364 21° North 453 521 33,000  Level Jacksonville Center
22:21 32.0128 -81.9714 23° Northeast 453 521 33,000  Level Jacksonville Center
22:22 32.1336 -81.9136 22° Northeast 458 527 33,000  Level Jacksonville Center
22:23 32.2417 -81.8586 23° Northeast 458 527 33,000  Level Jacksonville Center
22:24 32.3683 -81.7733 30° Northeast 464 534 33,000  Level Jacksonville Center
22:25 32.4825 -81.6956 30° Northeast 475 547 33,000  Level Jacksonville Center
22:26 32.5839 -81.6253 30° Northeast 475 547 33,000  Level Jacksonville Center
22:27 32.7106 -81.5397 30° Northeast 465 535 33,000 -60 Level Jacksonville Center
22:28 32.8222 -81.4589 31° Northeast 465 535 32,900  Descending Jacksonville Center
22:29 32.9319 -81.3828 30° Northeast 465 535 33,000  Climbing Jacksonville Center
22:30 33.0439 -81.3092 29° Northeast 465 535 33,000  Level Jacksonville Center
22:31 33.1556 -81.2303 31° Northeast 465 535 33,000  Level Jacksonville Center
22:37 33.8099 -80.7661 30° Northeast 464 534 33,000  Level FlightAware ADS-B (KCDN)
22:37 33.8661 -80.7265 30° Northeast 465 535 33,000  Level FlightAware ADS-B (KCDN)
22:38 33.9445 -80.6705 31° Northeast 465 535 33,000  Level FlightAware ADS-B (KCDN)
22:38 34.0048 -80.6266 31° Northeast 464 534 33,000  Level FlightAware ADS-B (KCDN)
22:39 34.0884 -80.5667 31° Northeast 461 531 33,000 -960 Level FlightAware ADS-B (KCDN)
22:40 34.1707 -80.5082 31° Northeast 463 533 31,600 -2,100 Descending FlightAware ADS-B (KCDN)
22:41 34.2522 -80.4493 31° Northeast 459 528 29,900 -2,340 Descending FlightAware ADS-B (KCDN)
22:41 34.3290 -80.3935 31° Northeast 469 540 28,300 -2,100 Descending FlightAware ADS-B (KCDN)
22:42 34.4171 -80.3295 31° Northeast 464 534 26,800 -1,920 Descending FlightAware ADS-B (KCDN)
22:44 34.6101 -80.1885 31° Northeast 428 493 23,400 -1,440 Descending FlightAware ADS-B (KCDN)
22:45 34.6817 -80.1353 31° Northeast 431 496 23,000 -240 Descending Washington Center
22:46 34.7828 -80.0628 30° Northeast 428 493 23,000 -600 Level Washington Center
22:47 34.8831 -79.9642 39° Northeast 428 493 21,900 -1,500 Descending Washington Center
22:48 34.9756 -79.8764 38° Northeast 427 491 19,900 -2,040 Descending Washington Center
22:49 35.0736 -79.7833 38° Northeast 406 467 17,700 -1,980 Descending Washington Center
22:50 35.1600 -79.7008 38° Northeast 398 458 16,000 -1,860 Descending Washington Center
22:51 35.2264 -79.6419 36° Northeast 391 450 14,400 -1,920 Descending Washington Center
22:51 35.2447 -79.6217 42° Northeast 388 447 14,000 -1,800 Descending Washington Center
22:51 35.2839 -79.5883 35° Northeast 380 437 13,200 -1,620 Descending Washington Center
22:52 35.3328 -79.5369 41° Northeast 374 430 12,400 -1,500 Descending Washington Center
22:52 35.3625 -79.5094 37° Northeast 364 419 11,700 -1,440 Descending Washington Center
22:53 35.4119 -79.4614 38° Northeast 363 418 11,000 -720 Descending Washington Center
22:53 35.4456 -79.4286 38° Northeast 321 369 11,000 -600 Level Washington Center
22:54 35.4867 -79.3992 30° Northeast 317 365 10,400 -1,320 Descending Washington Center
22:54 35.5156 -79.3739 35° Northeast 300 345 9,700 -1,620 Descending Washington Center
22:55 35.5400 -79.3225 60° Northeast 302 348 8,800 -1,620 Descending Washington Center
22:55 35.5436 -79.2750 85° East 297 342 8,000 -1,620 Descending Washington Center
22:56 35.5525 -79.2228 78° East 295 339 7,200 -1,920 Descending Washington Center
22:56 35.5728 -79.1839 57° Northeast 288 331 6,200 -1,980 Descending Washington Center
22:57 35.6036 -79.1406 49° Northeast 290 334 5,200 -1,620 Descending Washington Center
22:57 35.6236 -79.1083 53° Northeast 279 321 4,600 -960 Descending Washington Center
22:58 35.6494 -79.0728 48° Northeast 276 318 4,200 -780 Descending Washington Center
22:58 35.6733 -79.0431 45° Northeast 242 278 3,800 -1,020 Descending Washington Center
22:59 35.6981 -79.0161 42° Northeast 250 288 3,200 -1,020 Descending Washington Center
22:59 35.7219 -78.9928 38° Northeast 217 250 2,800 -900 Descending Washington Center
23:00 35.7442 -78.9667 44° Northeast 227 261 2,300 -840 Descending Washington Center
23:00 35.7600 -78.9411 53° Northeast 193 222 2,000 -300 Descending Washington Center
23:01 35.7903 -78.9039 45° Northeast 177 204 2,000  Level Washington Center
23:02 35.8194 -78.8708 43° Northeast 172 198 2,000 -240 Level Washington Center
23:02 35.8253 -78.8647 40° Northeast 147 169 1,800 -660 Descending Washington Center
23:03 35.8442 -78.8386 48° Northeast 142 163 1,400 -720 Descending Washington Center
23:03 35.8489 -78.8344 36° Northeast 118 136 1,100 -600 Descending Washington Center
23:04 35.8686 -78.8092 46° Northeast 130 150 800 -360 Descending Washington Center
23:06 35.8667 -78.7833 51° Northeast  Level FlightAware Approximate
23:13 35.8776 -78.7875 51° Northeast  Level Estimated